sensor_id;sensor_type;location;lat;lon;timestamp;pressure;altitude;pressure_sealevel;temperature;humidity
67738;BME280;54534;43.612;1.572;2023-03-19T00:02:02;99211.47;;;18.37;51.10
67738;BME280;54534;43.612;1.572;2023-03-19T00:04:28;99220.31;;;18.38;51.07
67738;BME280;54534;43.612;1.572;2023-03-19T00:06:53;99217.66;;;18.38;51.07
67738;BME280;54534;43.612;1.572;2023-03-19T00:09:20;99222.25;;;18.36;51.21
67738;BME280;54534;43.612;1.572;2023-03-19T00:11:46;99220.31;;;18.38;51.24
67738;BME280;54534;43.612;1.572;2023-03-19T00:14:11;99218.75;;;18.35;51.03
67738;BME280;54534;43.612;1.572;2023-03-19T00:16:37;99222.38;;;18.34;50.95
67738;BME280;54534;43.612;1.572;2023-03-19T00:19:03;99220.69;;;18.33;50.97
67738;BME280;54534;43.612;1.572;2023-03-19T00:21:29;99220.69;;;18.33;50.90
67738;BME280;54534;43.612;1.572;2023-03-19T00:23:55;99219.84;;;18.32;50.73
67738;BME280;54534;43.612;1.572;2023-03-19T00:26:30;99218.13;;;18.31;51.08
67738;BME280;54534;43.612;1.572;2023-03-19T00:28:57;99215.47;;;18.31;51.08
67738;BME280;54534;43.612;1.572;2023-03-19T00:31:23;99226.13;;;18.31;50.58
67738;BME280;54534;43.612;1.572;2023-03-19T00:33:49;99227.09;;;18.30;50.42
67738;BME280;54534;43.612;1.572;2023-03-19T00:36:15;99225.28;;;18.31;50.91
67738;BME280;54534;43.612;1.572;2023-03-19T00:38:42;99221.78;;;18.30;50.60
67738;BME280;54534;43.612;1.572;2023-03-19T00:41:09;99220.94;;;18.30;50.46
67738;BME280;54534;43.612;1.572;2023-03-19T00:43:34;99230.72;;;18.29;50.56
67738;BME280;54534;43.612;1.572;2023-03-19T00:46:00;99226.38;;;18.28;50.60
67738;BME280;54534;43.612;1.572;2023-03-19T00:48:25;99229.06;;;18.28;51.15
67738;BME280;54534;43.612;1.572;2023-03-19T00:50:51;99222.03;;;18.27;50.60
67738;BME280;54534;43.612;1.572;2023-03-19T00:53:17;99232.66;;;18.27;50.58
67738;BME280;54534;43.612;1.572;2023-03-19T00:55:42;99236.28;;;18.26;50.57
67738;BME280;54534;43.612;1.572;2023-03-19T00:58:08;99235.47;;;18.26;50.43
67738;BME280;54534;43.612;1.572;2023-03-19T01:00:34;99230.97;;;18.26;50.62
67738;BME280;54534;43.612;1.572;2023-03-19T01:03:00;99234.59;;;18.25;50.78
67738;BME280;54534;43.612;1.572;2023-03-19T01:05:26;99231.09;;;18.25;50.70
67738;BME280;54534;43.612;1.572;2023-03-19T01:07:52;99233.75;;;18.25;50.44
67738;BME280;54534;43.612;1.572;2023-03-19T01:10:18;99239.06;;;18.25;50.79
67738;BME280;54534;43.612;1.572;2023-03-19T01:12:44;99236.56;;;18.23;50.40
67738;BME280;54534;43.612;1.572;2023-03-19T01:15:10;99235.69;;;18.22;50.57
67738;BME280;54534;43.612;1.572;2023-03-19T01:17:35;99236.56;;;18.23;50.78
67738;BME280;54534;43.612;1.572;2023-03-19T01:20:02;99238.34;;;18.22;50.61
67738;BME280;54534;43.612;1.572;2023-03-19T01:22:28;99235.81;;;18.21;50.76
67738;BME280;54534;43.612;1.572;2023-03-19T01:24:53;99236.66;;;18.21;50.82
67738;BME280;54534;43.612;1.572;2023-03-19T01:27:20;99233.13;;;18.21;50.30
67738;BME280;54534;43.612;1.572;2023-03-19T01:29:45;99237.63;;;18.20;50.65
67738;BME280;54534;43.612;1.572;2023-03-19T01:32:11;99238.47;;;18.21;50.37
67738;BME280;54534;43.612;1.572;2023-03-19T01:34:36;99234.09;;;18.20;50.55
67738;BME280;54534;43.612;1.572;2023-03-19T01:37:02;99239.41;;;18.20;50.74
67738;BME280;54534;43.612;1.572;2023-03-19T01:39:27;99235.06;;;18.19;50.71
67738;BME280;54534;43.612;1.572;2023-03-19T01:41:52;99229.84;;;18.17;50.67
67738;BME280;54534;43.612;1.572;2023-03-19T01:44:23;99231.53;;;18.18;50.85
67738;BME280;54534;43.612;1.572;2023-03-19T01:46:48;99230.72;;;18.18;50.86
67738;BME280;54534;43.612;1.572;2023-03-19T01:49:16;99222.72;;;18.18;50.50
67738;BME280;54534;43.612;1.572;2023-03-19T01:51:44;99227.19;;;18.17;50.61
67738;BME280;54534;43.612;1.572;2023-03-19T01:54:13;99228.16;;;18.16;50.91
67738;BME280;54534;43.612;1.572;2023-03-19T01:56:40;99227.31;;;18.16;50.55
67738;BME280;54534;43.612;1.572;2023-03-19T01:59:14;99227.31;;;18.16;50.83
67738;BME280;54534;43.612;1.572;2023-03-19T02:01:48;99230.94;;;18.15;50.95
67738;BME280;54534;43.612;1.572;2023-03-19T02:04:14;99232.75;;;18.14;50.99
67738;BME280;54534;43.612;1.572;2023-03-19T02:06:41;99234.47;;;18.15;50.94
67738;BME280;54534;43.612;1.572;2023-03-19T02:09:08;99238.06;;;18.14;51.18
67738;BME280;54534;43.612;1.572;2023-03-19T02:11:34;99237.22;;;18.14;50.73
67738;BME280;54534;43.612;1.572;2023-03-19T02:14:00;99229.25;;;18.14;50.95
67738;BME280;54534;43.612;1.572;2023-03-19T02:16:25;99230.22;;;18.12;51.05
67738;BME280;54534;43.612;1.572;2023-03-19T02:18:51;99228.53;;;18.11;50.80
67738;BME280;54534;43.612;1.572;2023-03-19T02:21:19;99230.22;;;18.12;51.14
67738;BME280;54534;43.612;1.572;2023-03-19T02:26:32;99236.50;;;18.11;50.93
67738;BME280;54534;43.612;1.572;2023-03-19T02:28:59;99230.47;;;18.09;51.20
67738;BME280;54534;43.612;1.572;2023-03-19T02:31:24;99229.47;;;18.10;50.92
67738;BME280;54534;43.612;1.572;2023-03-19T02:36:40;99232.13;;;18.10;51.07
67738;BME280;54534;43.612;1.572;2023-03-19T02:39:15;99232.28;;;18.09;50.92
67738;BME280;54534;43.612;1.572;2023-03-19T02:41:43;99228.75;;;18.08;51.17
67738;BME280;54534;43.612;1.572;2023-03-19T02:44:10;99232.41;;;18.07;50.60
67738;BME280;54534;43.612;1.572;2023-03-19T02:46:36;99234.06;;;18.08;50.74
67738;BME280;54534;43.612;1.572;2023-03-19T02:49:02;99239.41;;;18.08;50.83
67738;BME280;54534;43.612;1.572;2023-03-19T02:51:28;99235.06;;;18.07;50.85
67738;BME280;54534;43.612;1.572;2023-03-19T02:53:53;99233.22;;;18.08;50.84
67738;BME280;54534;43.612;1.572;2023-03-19T02:56:19;99238.69;;;18.06;50.65
67738;BME280;54534;43.612;1.572;2023-03-19T02:58:44;99242.19;;;18.07;50.95
67738;BME280;54534;43.612;1.572;2023-03-19T03:01:10;99235.16;;;18.06;51.02
67738;BME280;54534;43.612;1.572;2023-03-19T03:03:35;99236.88;;;18.07;50.68
67738;BME280;54534;43.612;1.572;2023-03-19T03:06:01;99240.47;;;18.06;50.72
67738;BME280;54534;43.612;1.572;2023-03-19T03:08:26;99235.16;;;18.06;50.58
67738;BME280;54534;43.612;1.572;2023-03-19T03:10:52;99237.97;;;18.04;50.59
67738;BME280;54534;43.612;1.572;2023-03-19T03:13:17;99237.97;;;18.04;50.93
67738;BME280;54534;43.612;1.572;2023-03-19T03:15:43;99233.50;;;18.05;50.51
67738;BME280;54534;43.612;1.572;2023-03-19T03:18:08;99243.28;;;18.04;50.62
67738;BME280;54534;43.612;1.572;2023-03-19T03:20:34;99237.97;;;18.04;50.66
67738;BME280;54534;43.612;1.572;2023-03-19T03:22:59;99238.91;;;18.03;51.02
67738;BME280;54534;43.612;1.572;2023-03-19T03:25:25;99240.72;;;18.03;50.87
67738;BME280;54534;43.612;1.572;2023-03-19T03:27:50;99243.50;;;18.01;50.82
67738;BME280;54534;43.612;1.572;2023-03-19T03:30:16;99245.22;;;18.02;50.64
67738;BME280;54534;43.612;1.572;2023-03-19T03:32:42;99245.22;;;18.02;50.82
67738;BME280;54534;43.612;1.572;2023-03-19T03:35:08;99242.56;;;18.02;50.67
67738;BME280;54534;43.612;1.572;2023-03-19T03:37:34;99247.03;;;18.01;50.63
67738;BME280;54534;43.612;1.572;2023-03-19T03:40:01;99240.84;;;18.01;50.89
67738;BME280;54534;43.612;1.572;2023-03-19T03:42:30;99244.59;;;17.98;50.81
67738;BME280;54534;43.612;1.572;2023-03-19T03:44:57;99247.13;;;18.00;50.63
67738;BME280;54534;43.612;1.572;2023-03-19T03:47:22;99247.13;;;18.00;50.90
67738;BME280;54534;43.612;1.572;2023-03-19T03:49:48;99251.72;;;17.98;50.91
67738;BME280;54534;43.612;1.572;2023-03-19T03:52:13;99250.88;;;17.97;50.92
67738;BME280;54534;43.612;1.572;2023-03-19T03:54:38;99257.03;;;17.98;51.01
67738;BME280;54534;43.612;1.572;2023-03-19T03:57:04;99263.22;;;17.98;50.73
67738;BME280;54534;43.612;1.572;2023-03-19T03:59:29;99255.25;;;17.98;50.66
67738;BME280;54534;43.612;1.572;2023-03-19T04:01:55;99265.88;;;17.98;50.88
67738;BME280;54534;43.612;1.572;2023-03-19T04:04:20;99258.75;;;17.99;50.81
67738;BME280;54534;43.612;1.572;2023-03-19T04:06:46;99264.16;;;17.97;50.68
67738;BME280;54534;43.612;1.572;2023-03-19T04:09:11;99265.16;;;17.96;50.71
67738;BME280;54534;43.612;1.572;2023-03-19T04:11:37;99274.81;;;17.97;50.67
67738;BME280;54534;43.612;1.572;2023-03-19T04:14:03;99271.28;;;17.97;50.54
67738;BME280;54534;43.612;1.572;2023-03-19T04:16:29;99273.13;;;17.96;50.48
67738;BME280;54534;43.612;1.572;2023-03-19T04:18:55;99277.59;;;17.96;50.39
67738;BME280;54534;43.612;1.572;2023-03-19T04:21:20;99278.44;;;17.96;50.88
67738;BME280;54534;43.612;1.572;2023-03-19T04:23:46;99275.91;;;17.95;50.50
67738;BME280;54534;43.612;1.572;2023-03-19T04:26:11;99283.03;;;17.94;50.80
67738;BME280;54534;43.612;1.572;2023-03-19T04:28:37;99290.91;;;17.96;50.79
67738;BME280;54534;43.612;1.572;2023-03-19T04:31:06;99285.59;;;17.96;50.67
67738;BME280;54534;43.612;1.572;2023-03-19T04:33:32;99297.19;;;17.95;50.61
67738;BME280;54534;43.612;1.572;2023-03-19T04:35:58;99297.19;;;17.95;50.54
67738;BME280;54534;43.612;1.572;2023-03-19T04:38:24;99304.31;;;17.94;50.57
67738;BME280;54534;43.612;1.572;2023-03-19T04:40:54;99306.13;;;17.94;50.36
67738;BME280;54534;43.612;1.572;2023-03-19T04:43:20;99302.50;;;17.95;50.56
67738;BME280;54534;43.612;1.572;2023-03-19T04:45:46;99309.75;;;17.93;50.60
67738;BME280;54534;43.612;1.572;2023-03-19T04:48:11;99307.09;;;17.93;50.59
67738;BME280;54534;43.612;1.572;2023-03-19T04:50:37;99316.78;;;17.94;50.82
67738;BME280;54534;43.612;1.572;2023-03-19T04:53:03;99315.06;;;17.93;50.52
67738;BME280;54534;43.612;1.572;2023-03-19T04:55:29;99316.88;;;17.92;50.30
67738;BME280;54534;43.612;1.572;2023-03-19T04:57:54;99320.41;;;17.93;50.37
67738;BME280;54534;43.612;1.572;2023-03-19T05:00:20;99326.66;;;17.92;50.63
67738;BME280;54534;43.612;1.572;2023-03-19T05:02:46;99329.31;;;17.92;50.52
67738;BME280;54534;43.612;1.572;2023-03-19T05:05:12;99332.84;;;17.92;50.66
67738;BME280;54534;43.612;1.572;2023-03-19T05:07:38;99337.31;;;17.92;50.57
67738;BME280;54534;43.612;1.572;2023-03-19T05:10:05;99340.09;;;17.90;50.54
67738;BME280;54534;43.612;1.572;2023-03-19T05:12:30;99345.41;;;17.90;50.30
67738;BME280;54534;43.612;1.572;2023-03-19T05:14:56;99339.13;;;17.91;50.46
67738;BME280;54534;43.612;1.572;2023-03-19T05:17:22;99341.91;;;17.89;50.54
67738;BME280;54534;43.612;1.572;2023-03-19T05:19:47;99342.88;;;17.88;50.39
67738;BME280;54534;43.612;1.572;2023-03-19T05:22:13;99344.56;;;17.89;50.36
67738;BME280;54534;43.612;1.572;2023-03-19T05:24:38;99355.19;;;17.89;50.67
67738;BME280;54534;43.612;1.572;2023-03-19T05:27:04;99356.19;;;17.88;50.27
67738;BME280;54534;43.612;1.572;2023-03-19T05:29:29;99355.31;;;17.88;50.11
67738;BME280;54534;43.612;1.572;2023-03-19T05:31:55;99351.81;;;17.87;50.17
67738;BME280;54534;43.612;1.572;2023-03-19T05:34:20;99359.78;;;17.87;50.44
67738;BME280;54534;43.612;1.572;2023-03-19T05:36:45;99362.44;;;17.87;50.63
67738;BME280;54534;43.612;1.572;2023-03-19T05:39:11;99363.31;;;17.88;50.61
67738;BME280;54534;43.612;1.572;2023-03-19T05:41:36;99354.47;;;17.87;50.44
67738;BME280;54534;43.612;1.572;2023-03-19T05:44:02;99360.88;;;17.85;50.33
67738;BME280;54534;43.612;1.572;2023-03-19T05:46:28;99367.91;;;17.86;50.50
67738;BME280;54534;43.612;1.572;2023-03-19T05:48:53;99373.22;;;17.86;50.59
67738;BME280;54534;43.612;1.572;2023-03-19T05:51:18;99369.56;;;17.87;50.64
67738;BME280;54534;43.612;1.572;2023-03-19T05:53:44;99379.38;;;17.86;50.18
67738;BME280;54534;43.612;1.572;2023-03-19T05:56:10;99383.84;;;17.86;50.55
67738;BME280;54534;43.612;1.572;2023-03-19T05:58:36;99373.31;;;17.84;50.25
67738;BME280;54534;43.612;1.572;2023-03-19T06:01:01;99378.63;;;17.84;50.54
67738;BME280;54534;43.612;1.572;2023-03-19T06:03:27;99375.13;;;17.84;49.89
67738;BME280;54534;43.612;1.572;2023-03-19T06:05:53;99383.97;;;17.84;50.56
67738;BME280;54534;43.612;1.572;2023-03-19T06:08:18;99389.41;;;17.83;50.07
67738;BME280;54534;43.612;1.572;2023-03-19T06:10:44;99386.75;;;17.83;50.28
67738;BME280;54534;43.612;1.572;2023-03-19T06:13:10;99399.19;;;17.82;50.36
67738;BME280;54534;43.612;1.572;2023-03-19T06:15:35;99406.22;;;17.83;50.33
67738;BME280;54534;43.612;1.572;2023-03-19T06:18:01;99400.03;;;17.83;50.43
67738;BME280;54534;43.612;1.572;2023-03-19T06:20:26;99407.16;;;17.82;50.58
67738;BME280;54534;43.612;1.572;2023-03-19T06:22:52;99399.19;;;17.82;50.11
67738;BME280;54534;43.612;1.572;2023-03-19T06:25:17;99411.63;;;17.82;50.60
67738;BME280;54534;43.612;1.572;2023-03-19T06:27:43;99408.97;;;17.82;50.46
67738;BME280;54534;43.612;1.572;2023-03-19T06:30:09;99418.75;;;17.81;50.16
67738;BME280;54534;43.612;1.572;2023-03-19T06:32:34;99416.94;;;17.82;50.18
67738;BME280;54534;43.612;1.572;2023-03-19T06:35:00;99421.41;;;17.81;50.45
67738;BME280;54534;43.612;1.572;2023-03-19T06:37:26;99419.75;;;17.80;50.34
67738;BME280;54534;43.612;1.572;2023-03-19T06:39:51;99424.06;;;17.81;50.20
67738;BME280;54534;43.612;1.572;2023-03-19T06:42:19;99433.88;;;17.81;50.38
67738;BME280;54534;43.612;1.572;2023-03-19T06:44:45;99427.94;;;17.77;50.40
67738;BME280;54534;43.612;1.572;2023-03-19T06:47:11;99424.19;;;17.79;50.39
67738;BME280;54534;43.612;1.572;2023-03-19T06:49:36;99435.69;;;17.80;50.30
67738;BME280;54534;43.612;1.572;2023-03-19T06:52:02;99441.00;;;17.80;50.54
67738;BME280;54534;43.612;1.572;2023-03-19T06:54:27;99436.66;;;17.79;50.16
67738;BME280;54534;43.612;1.572;2023-03-19T06:56:53;99445.47;;;17.79;50.70
67738;BME280;54534;43.612;1.572;2023-03-19T06:59:18;99443.66;;;17.80;50.32
67738;BME280;54534;43.612;1.572;2023-03-19T07:01:44;99443.66;;;17.80;50.23
67738;BME280;54534;43.612;1.572;2023-03-19T07:04:11;99451.66;;;17.80;50.22
67738;BME280;54534;43.612;1.572;2023-03-19T07:06:36;99456.97;;;17.80;50.21
67738;BME280;54534;43.612;1.572;2023-03-19T07:09:02;99453.47;;;17.79;50.32
67738;BME280;54534;43.612;1.572;2023-03-19T07:11:28;99457.91;;;17.79;50.16
67738;BME280;54534;43.612;1.572;2023-03-19T07:13:53;99466.88;;;17.78;50.45
67738;BME280;54534;43.612;1.572;2023-03-19T07:16:19;99460.59;;;17.79;50.66
67738;BME280;54534;43.612;1.572;2023-03-19T07:18:44;99457.91;;;17.79;50.77
67738;BME280;54534;43.612;1.572;2023-03-19T07:21:10;99460.72;;;17.77;50.77
67738;BME280;54534;43.612;1.572;2023-03-19T07:23:35;99471.34;;;17.77;50.40
67738;BME280;54534;43.612;1.572;2023-03-19T07:26:00;99476.53;;;17.79;50.69
67738;BME280;54534;43.612;1.572;2023-03-19T07:28:26;99479.19;;;17.79;50.88
67738;BME280;54534;43.612;1.572;2023-03-19T07:30:52;99481.84;;;17.79;50.63
67738;BME280;54534;43.612;1.572;2023-03-19T07:33:19;99481.84;;;17.79;50.81
67738;BME280;54534;43.612;1.572;2023-03-19T07:35:46;99496.88;;;17.80;50.87
67738;BME280;54534;43.612;1.572;2023-03-19T07:38:11;99484.50;;;17.79;50.89
67738;BME280;54534;43.612;1.572;2023-03-19T07:40:37;99494.31;;;17.78;50.92
67738;BME280;54534;43.612;1.572;2023-03-19T07:43:02;99493.34;;;17.79;51.03
67738;BME280;54534;43.612;1.572;2023-03-19T07:45:28;99492.50;;;17.79;50.93
67738;BME280;54534;43.612;1.572;2023-03-19T07:47:53;99495.16;;;17.79;50.74
67738;BME280;54534;43.612;1.572;2023-03-19T07:50:19;99504.84;;;17.80;50.96
67738;BME280;54534;43.612;1.572;2023-03-19T07:52:45;99504.84;;;17.80;51.29
67738;BME280;54534;43.612;1.572;2023-03-19T07:55:12;99504.00;;;17.79;50.97
67738;BME280;54534;43.612;1.572;2023-03-19T07:57:38;99511.13;;;17.79;50.95
67738;BME280;54534;43.612;1.572;2023-03-19T08:00:04;99505.78;;;17.79;51.33
67738;BME280;54534;43.612;1.572;2023-03-19T08:02:29;99510.16;;;17.80;51.21
67738;BME280;54534;43.612;1.572;2023-03-19T08:04:55;99511.03;;;17.81;50.87
67738;BME280;54534;43.612;1.572;2023-03-19T08:07:21;99518.16;;;17.80;50.97
67738;BME280;54534;43.612;1.572;2023-03-19T08:09:47;99515.50;;;17.80;50.80
67738;BME280;54534;43.612;1.572;2023-03-19T08:12:12;99518.16;;;17.80;51.22
67738;BME280;54534;43.612;1.572;2023-03-19T08:14:38;99518.16;;;17.80;50.98
67738;BME280;54534;43.612;1.572;2023-03-19T08:17:03;99521.66;;;17.81;51.14
67738;BME280;54534;43.612;1.572;2023-03-19T08:19:29;99534.09;;;17.80;50.77
67738;BME280;54534;43.612;1.572;2023-03-19T08:21:54;99533.25;;;17.79;50.96
67738;BME280;54534;43.612;1.572;2023-03-19T08:24:20;99538.56;;;17.79;51.20
67738;BME280;54534;43.612;1.572;2023-03-19T08:26:46;99541.22;;;17.79;51.07
67738;BME280;54534;43.612;1.572;2023-03-19T08:29:11;99542.09;;;17.80;51.19
67738;BME280;54534;43.612;1.572;2023-03-19T08:31:37;99542.09;;;17.80;50.77
67738;BME280;54534;43.612;1.572;2023-03-19T08:34:03;99539.41;;;17.80;50.79
67738;BME280;54534;43.612;1.572;2023-03-19T08:36:29;99543.03;;;17.79;50.91
67738;BME280;54534;43.612;1.572;2023-03-19T08:38:55;99549.22;;;17.79;51.14
67738;BME280;54534;43.612;1.572;2023-03-19T08:41:21;99553.66;;;17.79;50.95
67738;BME280;54534;43.612;1.572;2023-03-19T08:43:47;99554.53;;;17.79;50.69
67738;BME280;54534;43.612;1.572;2023-03-19T08:46:13;99555.47;;;17.78;50.70
67738;BME280;54534;43.612;1.572;2023-03-19T08:48:39;99556.31;;;17.79;50.81
67738;BME280;54534;43.612;1.572;2023-03-19T08:51:04;99556.31;;;17.79;51.07
67738;BME280;54534;43.612;1.572;2023-03-19T08:53:31;99553.66;;;17.79;50.90
67738;BME280;54534;43.612;1.572;2023-03-19T08:56:02;99568.69;;;17.80;50.99
67738;BME280;54534;43.612;1.572;2023-03-19T08:58:28;99569.63;;;17.79;50.65
67738;BME280;54534;43.612;1.572;2023-03-19T09:01:00;99572.28;;;17.79;51.08
67738;BME280;54534;43.612;1.572;2023-03-19T09:03:27;99569.63;;;17.79;51.03
67738;BME280;54534;43.612;1.572;2023-03-19T09:05:53;99570.59;;;17.78;50.66
67738;BME280;54534;43.612;1.572;2023-03-19T09:08:21;99578.59;;;17.78;50.91
67738;BME280;54534;43.612;1.572;2023-03-19T09:10:47;99576.75;;;17.78;50.63
67738;BME280;54534;43.612;1.572;2023-03-19T09:13:12;99587.38;;;17.78;50.83
67738;BME280;54534;43.612;1.572;2023-03-19T09:15:37;99585.59;;;17.79;50.66
67738;BME280;54534;43.612;1.572;2023-03-19T09:18:03;99582.06;;;17.78;50.85
67738;BME280;54534;43.612;1.572;2023-03-19T09:20:28;99578.59;;;17.78;50.64
67738;BME280;54534;43.612;1.572;2023-03-19T09:22:54;99580.38;;;17.77;50.89
67738;BME280;54534;43.612;1.572;2023-03-19T09:25:19;99587.38;;;17.78;51.12
67738;BME280;54534;43.612;1.572;2023-03-19T09:27:44;99579.41;;;17.78;50.76
67738;BME280;54534;43.612;1.572;2023-03-19T09:30:10;99589.09;;;17.79;50.82
67738;BME280;54534;43.612;1.572;2023-03-19T09:32:36;99590.03;;;17.78;50.82
67738;BME280;54534;43.612;1.572;2023-03-19T09:35:02;99585.72;;;17.77;50.97
67738;BME280;54534;43.612;1.572;2023-03-19T09:37:27;99591.88;;;17.78;51.16
67738;BME280;54534;43.612;1.572;2023-03-19T09:39:53;99594.53;;;17.78;50.53
67738;BME280;54534;43.612;1.572;2023-03-19T09:45:11;99590.03;;;17.78;50.70
67738;BME280;54534;43.612;1.572;2023-03-19T09:47:38;99587.50;;;17.77;50.72
67738;BME280;54534;43.612;1.572;2023-03-19T09:50:05;99590.03;;;17.78;50.92
67738;BME280;54534;43.612;1.572;2023-03-19T09:52:55;99587.50;;;17.77;50.83
67738;BME280;54534;43.612;1.572;2023-03-19T09:57:47;99582.19;;;17.77;50.83
67738;BME280;54534;43.612;1.572;2023-03-19T10:00:36;99582.19;;;17.77;50.93
67738;BME280;54534;43.612;1.572;2023-03-19T10:16:40;99606.00;;;17.78;50.86
67738;BME280;54534;43.612;1.572;2023-03-19T10:19:09;99599.88;;;17.78;50.90
67738;BME280;54534;43.612;1.572;2023-03-19T10:21:57;99601.53;;;17.79;50.60
67738;BME280;54534;43.612;1.572;2023-03-19T10:24:33;99592.63;;;17.80;50.62
67738;BME280;54534;43.612;1.572;2023-03-19T10:27:08;99590.03;;;17.78;50.81
67738;BME280;54534;43.612;1.572;2023-03-19T10:29:35;99596.22;;;17.79;50.96
67738;BME280;54534;43.612;1.572;2023-03-19T10:34:37;99595.38;;;17.78;50.59
67738;BME280;54534;43.612;1.572;2023-03-19T10:39:34;99593.47;;;17.81;50.74
67738;BME280;54534;43.612;1.572;2023-03-19T10:44:52;99587.28;;;17.80;50.64
67738;BME280;54534;43.612;1.572;2023-03-19T10:47:24;99596.22;;;17.79;51.00
67738;BME280;54534;43.612;1.572;2023-03-19T10:49:50;99583.03;;;17.77;50.70
67738;BME280;54534;43.612;1.572;2023-03-19T10:54:46;99592.63;;;17.80;51.17
67738;BME280;54534;43.612;1.572;2023-03-19T10:57:24;99592.50;;;17.82;51.06
67738;BME280;54534;43.612;1.572;2023-03-19T10:59:50;99593.47;;;17.81;51.07
67738;BME280;54534;43.612;1.572;2023-03-19T11:02:21;99585.50;;;17.81;51.15
67738;BME280;54534;43.612;1.572;2023-03-19T11:04:48;99593.47;;;17.81;51.20
67738;BME280;54534;43.612;1.572;2023-03-19T11:07:18;99597.81;;;17.82;51.12
67738;BME280;54534;43.612;1.572;2023-03-19T11:12:18;99595.06;;;17.83;50.79
67738;BME280;54534;43.612;1.572;2023-03-19T11:14:47;99601.34;;;17.82;50.89
67738;BME280;54534;43.612;1.572;2023-03-19T11:17:20;99597.72;;;17.83;51.33
67738;BME280;54534;43.612;1.572;2023-03-19T11:19:56;99592.41;;;17.83;50.75
67738;BME280;54534;43.612;1.572;2023-03-19T11:22:42;99591.56;;;17.83;50.71
67738;BME280;54534;43.612;1.572;2023-03-19T11:25:17;99584.44;;;17.83;50.86
67738;BME280;54534;43.612;1.572;2023-03-19T11:27:49;99586.22;;;17.83;51.12
67738;BME280;54534;43.612;1.572;2023-03-19T11:30:21;99582.59;;;17.84;50.82
67738;BME280;54534;43.612;1.572;2023-03-19T11:35:24;99576.31;;;17.85;50.59
67738;BME280;54534;43.612;1.572;2023-03-19T11:37:57;99578.97;;;17.85;51.25
67738;BME280;54534;43.612;1.572;2023-03-19T11:40:43;99579.84;;;17.85;51.02
67738;BME280;54534;43.612;1.572;2023-03-19T11:48:50;99578.97;;;17.85;50.77
67738;BME280;54534;43.612;1.572;2023-03-19T11:51:39;99575.47;;;17.84;50.70
67738;BME280;54534;43.612;1.572;2023-03-19T12:05:02;99564.63;;;17.87;50.90
67738;BME280;54534;43.612;1.572;2023-03-19T12:07:42;99568.13;;;17.88;50.86
67738;BME280;54534;43.612;1.572;2023-03-19T12:29:23;99553.03;;;17.88;50.57
67738;BME280;54534;43.612;1.572;2023-03-19T12:37:18;99552.91;;;17.90;50.82
67738;BME280;54534;43.612;1.572;2023-03-19T12:42:30;99554.50;;;17.93;50.93
67738;BME280;54534;43.612;1.572;2023-03-19T12:44:58;99548.22;;;17.94;51.11
67738;BME280;54534;43.612;1.572;2023-03-19T12:47:31;99536.59;;;17.95;51.31
67738;BME280;54534;43.612;1.572;2023-03-19T12:50:11;99537.34;;;17.97;51.50
67738;BME280;54534;43.612;1.572;2023-03-19T12:52:40;99538.31;;;17.96;51.17
67738;BME280;54534;43.612;1.572;2023-03-19T12:57:41;99545.31;;;17.97;51.21
67738;BME280;54534;43.612;1.572;2023-03-19T13:08:57;99536.38;;;17.98;50.98
67738;BME280;54534;43.612;1.572;2023-03-19T13:22:55;99526.81;;;17.95;50.99
67738;BME280;54534;43.612;1.572;2023-03-19T13:25:26;99527.66;;;17.96;51.25
67738;BME280;54534;43.612;1.572;2023-03-19T13:27:55;99533.84;;;17.96;51.11
67738;BME280;54534;43.612;1.572;2023-03-19T13:30:22;99528.53;;;17.96;50.60
67738;BME280;54534;43.612;1.572;2023-03-19T13:32:50;99525.97;;;17.95;50.35
67738;BME280;54534;43.612;1.572;2023-03-19T13:35:33;99530.41;;;17.94;50.84
67738;BME280;54534;43.612;1.572;2023-03-19T13:38:10;99514.59;;;17.93;50.78
67738;BME280;54534;43.612;1.572;2023-03-19T13:46:25;99508.41;;;17.92;50.79
67738;BME280;54534;43.612;1.572;2023-03-19T13:48:51;99508.41;;;17.92;50.59
67738;BME280;54534;43.612;1.572;2023-03-19T13:54:14;99501.28;;;17.93;50.59
67738;BME280;54534;43.612;1.572;2023-03-19T14:01:58;99509.25;;;17.93;50.67
67738;BME280;54534;43.612;1.572;2023-03-19T14:04:30;99513.63;;;17.94;51.28
67738;BME280;54534;43.612;1.572;2023-03-19T14:07:09;99513.50;;;17.95;50.72
67738;BME280;54534;43.612;1.572;2023-03-19T14:09:40;99512.66;;;17.95;51.04
67738;BME280;54534;43.612;1.572;2023-03-19T14:14:45;99510.72;;;17.97;50.87
67738;BME280;54534;43.612;1.572;2023-03-19T14:17:24;99504.47;;;17.98;50.92
67738;BME280;54534;43.612;1.572;2023-03-19T14:19:51;99503.72;;;17.96;51.00
67738;BME280;54534;43.612;1.572;2023-03-19T14:25:14;99497.22;;;18.00;51.12
67738;BME280;54534;43.612;1.572;2023-03-19T14:32:54;99488.28;;;18.01;51.24
67738;BME280;54534;43.612;1.572;2023-03-19T14:35:24;99495.31;;;18.02;50.75
67738;BME280;54534;43.612;1.572;2023-03-19T14:37:51;99482.81;;;18.03;51.11
67738;BME280;54534;43.612;1.572;2023-03-19T14:42:56;99477.41;;;18.04;50.95
67738;BME280;54534;43.612;1.572;2023-03-19T14:56:46;99489.50;;;18.08;50.90
67738;BME280;54534;43.612;1.572;2023-03-19T14:59:12;99496.53;;;18.09;51.05
67738;BME280;54534;43.612;1.572;2023-03-19T15:01:40;99482.38;;;18.09;50.88
67738;BME280;54534;43.612;1.572;2023-03-19T15:04:10;99491.09;;;18.11;50.91
67738;BME280;54534;43.612;1.572;2023-03-19T15:06:39;99508.88;;;18.10;51.29
67738;BME280;54534;43.612;1.572;2023-03-19T15:09:15;99496.31;;;18.12;50.89
67738;BME280;54534;43.612;1.572;2023-03-19T15:12:28;99508.78;;;18.12;51.04
67738;BME280;54534;43.612;1.572;2023-03-19T15:17:41;99535.25;;;18.14;51.02
67738;BME280;54534;43.612;1.572;2023-03-19T15:20:21;99544.81;;;18.16;51.23
67738;BME280;54534;43.612;1.572;2023-03-19T15:22:53;99544.81;;;18.16;51.05
67738;BME280;54534;43.612;1.572;2023-03-19T15:25:19;99543.16;;;18.15;51.00
67738;BME280;54534;43.612;1.572;2023-03-19T15:27:45;99543.97;;;18.16;51.30
67738;BME280;54534;43.612;1.572;2023-03-19T15:30:25;99541.22;;;18.17;51.05